Time;durP1;ratioP1;P1;durP2;ratioP2;P2;SDS_P1;SDS_P2;PMS_P1;PMS_P2;Temp;Humidity;BMP_temperature;BMP_pressure;BME280_temperature;BME280_humidity;BME280_pressure;Samples;Min_cycle;Max_cycle;Signal;HPM_P1;HPM_P2
2023/01/24 00:01:14;;;;;;;15.00;6.03;;;2.80;99.90;;;;;;5009813;28;20452;-71
2023/01/24 00:03:40;;;;;;;11.50;5.80;;;2.80;99.90;;;;;;4972708;28;20528;-70
2023/01/24 00:06:05;;;;;;;8.67;5.20;;;2.80;99.90;;;;;;4999668;28;20218;-71
2023/01/24 00:08:31;;;;;;;12.50;5.50;;;2.80;99.90;;;;;;5006832;28;20736;-70
2023/01/24 00:10:59;;;;;;;10.17;5.43;;;2.80;99.90;;;;;;5003051;28;20722;-72
2023/01/24 00:13:25;;;;;;;7.50;5.23;;;2.80;99.90;;;;;;5007058;28;20225;-71
2023/01/24 00:15:51;;;;;;;13.10;6.97;;;2.80;99.90;;;;;;4986967;28;20439;-71
2023/01/24 00:18:16;;;;;;;10.83;6.63;;;2.80;99.90;;;;;;5004260;28;20588;-72
2023/01/24 00:20:42;;;;;;;9.60;5.83;;;2.80;99.90;;;;;;5004711;28;20244;-71
2023/01/24 00:23:08;;;;;;;12.50;5.83;;;2.80;99.90;;;;;;5006701;28;20218;-71
2023/01/24 00:25:33;;;;;;;10.57;6.20;;;2.80;99.90;;;;;;5004661;28;20337;-72
2023/01/24 00:27:59;;;;;;;8.37;5.73;;;2.80;99.90;;;;;;4996248;28;20635;-72
2023/01/24 00:30:25;;;;;;;10.63;6.00;;;2.80;99.90;;;;;;4991652;28;20263;-72
2023/01/24 00:32:50;;;;;;;11.70;6.20;;;2.80;99.90;;;;;;4991367;28;20316;-71
2023/01/24 00:35:16;;;;;;;14.03;6.80;;;2.80;99.90;;;;;;4991371;28;20214;-72
2023/01/24 00:37:42;;;;;;;10.00;5.33;;;2.80;99.90;;;;;;5008951;28;20230;-72
2023/01/24 00:40:09;;;;;;;10.60;5.60;;;2.80;99.90;;;;;;5006200;28;20221;-71
2023/01/24 00:42:34;;;;;;;11.30;6.10;;;2.80;99.90;;;;;;5000242;28;20228;-72
2023/01/24 00:45:00;;;;;;;9.77;5.27;;;2.80;99.90;;;;;;5009522;28;20461;-72
2023/01/24 00:47:25;;;;;;;6.93;4.80;;;2.80;99.90;;;;;;5007677;28;20270;-72
2023/01/24 00:49:51;;;;;;;8.03;5.00;;;2.80;99.90;;;;;;5007993;28;20232;-72
2023/01/24 00:52:17;;;;;;;12.40;5.77;;;2.80;99.90;;;;;;5008206;28;20660;-72
2023/01/24 00:54:42;;;;;;;8.57;5.30;;;2.80;99.90;;;;;;5007844;28;20253;-72
2023/01/24 00:57:08;;;;;;;9.20;5.30;;;2.80;99.90;;;;;;5011401;28;20266;-72
2023/01/24 00:59:34;;;;;;;9.40;5.63;;;2.80;99.90;;;;;;4976254;28;20206;-72
2023/01/24 01:01:59;;;;;;;10.10;6.00;;;2.80;99.90;;;;;;5009033;28;20722;-72
2023/01/24 01:04:25;;;;;;;9.53;5.27;;;2.80;99.90;;;;;;5008897;28;20222;-69
2023/01/24 01:06:51;;;;;;;11.40;5.60;;;2.80;99.90;;;;;;5008381;28;20247;-72
2023/01/24 01:09:16;;;;;;;15.13;6.67;;;2.80;99.90;;;;;;5008125;28;20210;-72
2023/01/24 01:11:42;;;;;;;8.13;5.00;;;2.80;99.90;;;;;;5008122;28;20226;-72
2023/01/24 01:14:09;;;;;;;9.47;5.37;;;2.90;99.90;;;;;;4992034;28;20220;-72
2023/01/24 01:16:37;;;;;;;9.30;5.40;;;2.80;99.90;;;;;;5008669;28;20245;-72
2023/01/24 01:19:04;;;;;;;9.80;6.73;;;2.80;99.90;;;;;;5009198;28;20445;-72
2023/01/24 01:21:29;;;;;;;12.47;7.00;;;2.80;99.90;;;;;;5008494;28;20477;-72
2023/01/24 01:23:56;;;;;;;8.73;5.37;;;2.80;99.90;;;;;;5003368;28;20505;-72
2023/01/24 01:26:22;;;;;;;9.67;5.83;;;2.80;99.90;;;;;;4999676;28;20450;-72
2023/01/24 01:28:49;;;;;;;10.03;5.50;;;2.80;99.90;;;;;;4986852;28;20443;-71
2023/01/24 01:31:15;;;;;;;10.13;6.60;;;2.80;99.90;;;;;;4990959;28;20883;-72
2023/01/24 01:33:43;;;;;;;12.60;6.63;;;2.80;99.90;;;;;;5009706;28;20969;-72
2023/01/24 01:36:09;;;;;;;11.27;5.90;;;2.90;99.90;;;;;;5010347;28;20456;-72
2023/01/24 01:38:36;;;;;;;11.90;5.53;;;2.80;99.90;;;;;;5007016;28;20461;-71
2023/01/24 01:41:01;;;;;;;10.90;5.83;;;2.80;99.90;;;;;;4995788;28;20453;-72
2023/01/24 01:43:29;;;;;;;7.50;5.47;;;2.80;99.90;;;;;;4986255;28;20227;-71
2023/01/24 01:46:01;;;;;;;14.37;6.60;;;2.90;99.90;;;;;;4993626;28;20305;-72
2023/01/24 01:48:37;;;;;;;13.47;6.30;;;2.80;99.90;;;;;;5011001;28;20461;-72
2023/01/24 01:51:22;;;;;;;7.80;5.20;;;2.80;99.90;;;;;;5011579;28;20461;-72
2023/01/24 01:54:03;;;;;;;11.17;5.90;;;2.80;99.90;;;;;;5011019;28;20456;-71
2023/01/24 01:56:33;;;;;;;10.83;6.40;;;2.80;99.90;;;;;;5006990;28;20478;-70
2023/01/24 01:59:05;;;;;;;9.73;4.97;;;2.80;99.90;;;;;;5012792;28;20449;-72
2023/01/24 02:01:31;;;;;;;8.10;5.20;;;2.80;99.90;;;;;;4994548;28;20464;-72
2023/01/24 02:04:11;;;;;;;8.63;5.50;;;2.80;99.90;;;;;;5002288;28;20469;-72
2023/01/24 02:07:03;;;;;;;11.53;6.77;;;2.80;99.90;;;;;;4992269;28;21016;-72
2023/01/24 02:09:34;;;;;;;11.53;6.20;;;2.80;99.90;;;;;;4991794;28;20504;-72
2023/01/24 02:12:03;;;;;;;13.30;6.40;;;2.80;99.90;;;;;;5005566;28;20472;-72
2023/01/24 02:17:18;;;;;;;11.17;5.77;;;2.80;99.90;;;;;;5012067;28;20477;-72
2023/01/24 02:20:02;;;;;;;8.20;5.93;;;2.80;99.90;;;;;;5010182;28;20540;-71
2023/01/24 02:22:42;;;;;;;9.83;5.40;;;2.80;99.90;;;;;;5006641;28;20467;-72
2023/01/24 02:25:17;;;;;;;15.43;5.97;;;2.80;99.90;;;;;;5010957;28;20463;-72
2023/01/24 02:27:43;;;;;;;12.80;6.50;;;2.80;99.90;;;;;;5014083;28;20475;-70
2023/01/24 02:30:09;;;;;;;11.87;6.13;;;2.90;99.90;;;;;;5011888;28;20807;-72
2023/01/24 02:32:35;;;;;;;11.70;6.40;;;2.90;99.90;;;;;;5011113;28;20705;-72
2023/01/24 02:35:01;;;;;;;10.13;6.13;;;2.90;99.90;;;;;;5011624;28;20471;-72
2023/01/24 02:37:27;;;;;;;14.13;6.53;;;2.90;99.90;;;;;;5010912;28;20445;-72
2023/01/24 02:39:56;;;;;;;7.33;4.93;;;2.80;99.90;;;;;;5010562;28;20221;-71
2023/01/24 02:42:26;;;;;;;10.50;6.60;;;2.90;99.90;;;;;;5011065;28;20507;-72
2023/01/24 02:45:14;;;;;;;9.33;6.20;;;2.90;99.90;;;;;;5010564;28;20465;-72
2023/01/24 02:47:52;;;;;;;12.93;6.27;;;2.90;99.90;;;;;;4994942;28;20452;-72
2023/01/24 02:50:20;;;;;;;11.10;6.00;;;2.90;99.90;;;;;;5011368;28;20536;-71
2023/01/24 02:55:31;;;;;;;12.73;5.90;;;2.90;99.90;;;;;;5010867;28;20457;-72
2023/01/24 02:58:06;;;;;;;10.67;5.40;;;2.80;99.90;;;;;;5011028;28;20471;-72
2023/01/24 03:00:42;;;;;;;8.17;4.90;;;2.80;99.90;;;;;;5010577;28;20465;-71
2023/01/24 03:03:10;;;;;;;12.07;6.00;;;2.80;99.90;;;;;;4994357;28;20461;-72
2023/01/24 03:05:46;;;;;;;9.30;4.50;;;2.80;99.90;;;;;;5010011;28;20481;-72
2023/01/24 03:08:15;;;;;;;10.07;5.97;;;2.80;99.90;;;;;;4994860;28;20495;-71
2023/01/24 03:10:41;;;;;;;13.33;6.33;;;2.80;99.90;;;;;;5010742;28;21001;-71
2023/01/24 03:35:02;;;;;;;9.50;5.67;;;2.70;99.90;;;;;;5009798;28;20485;-72
2023/01/24 03:40:16;;;;;;;12.03;5.00;;;2.70;99.90;;;;;;5007758;28;20460;-72
2023/01/24 03:42:47;;;;;;;12.70;6.43;;;2.70;99.90;;;;;;4993442;28;20458;-72
2023/01/24 03:45:19;;;;;;;9.97;6.27;;;2.70;99.90;;;;;;4993524;28;20536;-72
2023/01/24 03:47:55;;;;;;;10.87;5.30;;;2.70;99.90;;;;;;4998338;28;20463;-72
2023/01/24 03:53:11;;;;;;;11.20;6.53;;;2.70;99.90;;;;;;5009522;28;20469;-72
2023/01/24 03:55:37;;;;;;;12.47;5.90;;;2.70;99.90;;;;;;5009719;28;20531;-71
2023/01/24 03:58:05;;;;;;;12.57;6.00;;;2.70;99.90;;;;;;5009531;28;20454;-72
2023/01/24 04:00:31;;;;;;;13.00;6.47;;;2.70;99.90;;;;;;4997989;28;21025;-72
2023/01/24 04:03:00;;;;;;;12.57;5.60;;;2.70;99.90;;;;;;5009471;28;20531;-72
2023/01/24 04:05:27;;;;;;;14.37;6.27;;;2.70;99.90;;;;;;5001607;28;20594;-72
2023/01/24 04:07:56;;;;;;;12.90;6.80;;;2.60;99.90;;;;;;5002903;28;20218;-72
2023/01/24 04:10:22;;;;;;;13.60;6.50;;;2.60;99.90;;;;;;5009764;28;20457;-72
2023/01/24 04:12:49;;;;;;;11.70;6.90;;;2.60;99.90;;;;;;5000102;28;20464;-72
2023/01/24 04:15:24;;;;;;;12.60;6.50;;;2.60;99.90;;;;;;5014705;28;20481;-72
2023/01/24 04:17:56;;;;;;;11.23;5.60;;;2.60;99.90;;;;;;4977280;28;20971;-71
2023/01/24 04:20:24;;;;;;;15.53;6.47;;;2.60;99.90;;;;;;5019389;28;20454;-72
2023/01/24 04:22:50;;;;;;;14.43;6.60;;;2.60;99.90;;;;;;5011228;28;20491;-72
2023/01/24 04:25:16;;;;;;;12.33;6.03;;;2.60;99.90;;;;;;5009601;28;20480;-72
2023/01/24 04:27:45;;;;;;;10.40;6.53;;;2.60;99.90;;;;;;5008264;28;20620;-71
2023/01/24 04:30:15;;;;;;;13.80;6.50;;;2.60;99.90;;;;;;4992740;28;20458;-72
2023/01/24 04:32:43;;;;;;;13.47;7.60;;;2.60;99.90;;;;;;4956649;28;20471;-72
2023/01/24 04:35:29;;;;;;;15.63;7.13;;;2.60;99.90;;;;;;4994538;28;20449;-72
2023/01/24 04:38:02;;;;;;;11.83;5.77;;;2.60;99.90;;;;;;5008253;28;20449;-72
2023/01/24 04:40:47;;;;;;;13.93;5.70;;;2.60;99.90;;;;;;5008230;28;20476;-72
2023/01/24 04:43:14;;;;;;;14.07;6.80;;;2.60;99.90;;;;;;4994763;28;20458;-72
2023/01/24 04:45:43;;;;;;;9.60;5.67;;;2.60;99.90;;;;;;4997715;28;20464;-72
2023/01/24 04:48:12;;;;;;;12.83;5.73;;;2.60;99.90;;;;;;5009063;28;20460;-71
2023/01/24 04:50:38;;;;;;;11.70;5.80;;;2.60;99.90;;;;;;5013148;28;20476;-71
2023/01/24 04:53:04;;;;;;;13.37;6.77;;;2.60;99.90;;;;;;4990722;28;20466;-71
2023/01/24 04:55:31;;;;;;;12.83;7.23;;;2.60;99.90;;;;;;4998027;28;20222;-71
2023/01/24 04:57:57;;;;;;;10.13;6.77;;;2.60;99.90;;;;;;4992676;28;21036;-72
2023/01/24 05:00:22;;;;;;;12.37;6.30;;;2.60;99.90;;;;;;4989813;28;20699;-72
2023/01/24 05:02:51;;;;;;;13.87;7.10;;;2.60;99.90;;;;;;4991090;28;20319;-70
2023/01/24 05:05:18;;;;;;;13.77;6.77;;;2.60;99.90;;;;;;5009128;28;20217;-71
2023/01/24 05:07:43;;;;;;;11.80;5.90;;;2.60;99.90;;;;;;5009747;28;20435;-72
2023/01/24 05:10:14;;;;;;;13.63;6.87;;;2.60;99.90;;;;;;5009269;28;20251;-72
2023/01/24 05:12:40;;;;;;;13.90;7.07;;;2.60;99.90;;;;;;5008727;28;20473;-72
2023/01/24 05:15:12;;;;;;;11.30;6.50;;;2.60;99.90;;;;;;5013350;28;20460;-72
2023/01/24 05:17:38;;;;;;;10.23;5.37;;;2.50;99.90;;;;;;4995666;28;20465;-72
2023/01/24 05:20:05;;;;;;;11.80;6.33;;;2.60;99.90;;;;;;5012598;28;20221;-72
2023/01/24 05:22:31;;;;;;;9.47;6.97;;;2.50;99.90;;;;;;5012480;28;20457;-71
2023/01/24 05:24:56;;;;;;;16.33;6.60;;;2.60;99.90;;;;;;5012138;28;20476;-72
2023/01/24 05:27:22;;;;;;;11.30;6.37;;;2.60;99.90;;;;;;4982666;28;20276;-72
2023/01/24 05:29:54;;;;;;;9.23;6.10;;;2.60;99.90;;;;;;5004857;28;20629;-71
2023/01/24 05:32:21;;;;;;;12.13;6.10;;;2.50;99.90;;;;;;4995551;28;20438;-72
2023/01/24 05:34:46;;;;;;;14.13;6.90;;;2.60;99.90;;;;;;4995714;28;20455;-72
2023/01/24 05:37:14;;;;;;;13.17;6.67;;;2.50;99.90;;;;;;5012155;28;20210;-72
2023/01/24 05:39:42;;;;;;;13.50;7.17;;;2.60;99.90;;;;;;5010320;28;20548;-72
2023/01/24 05:42:08;;;;;;;10.50;6.13;;;2.60;99.90;;;;;;4995133;28;20552;-71
2023/01/24 05:44:41;;;;;;;18.13;7.10;;;2.60;99.90;;;;;;5010839;28;20547;-72
2023/01/24 05:47:07;;;;;;;10.90;6.47;;;2.60;99.90;;;;;;4995801;28;20456;-70
2023/01/24 05:49:37;;;;;;;16.70;6.20;;;2.60;99.90;;;;;;5009613;28;20227;-71
2023/01/24 05:52:03;;;;;;;13.10;5.90;;;2.60;99.90;;;;;;4978084;28;20481;-69
2023/01/24 05:54:49;;;;;;;11.73;6.07;;;2.60;99.90;;;;;;4997246;28;20229;-70
2023/01/24 05:57:24;;;;;;;10.97;6.30;;;2.50;99.90;;;;;;5003659;28;20485;-71
2023/01/24 06:00:09;;;;;;;13.50;7.40;;;2.60;99.90;;;;;;5006932;28;20482;-71
2023/01/24 06:02:42;;;;;;;10.73;6.20;;;2.60;99.90;;;;;;5006932;28;20535;-71
2023/01/24 06:05:09;;;;;;;8.77;4.90;;;2.60;99.90;;;;;;4985387;28;20473;-71
2023/01/24 06:07:35;;;;;;;10.77;5.00;;;2.50;99.90;;;;;;4990251;28;20524;-70
2023/01/24 06:10:01;;;;;;;7.20;4.70;;;2.60;99.90;;;;;;5004475;28;20213;-70
2023/01/24 06:12:35;;;;;;;10.03;4.87;;;2.60;99.90;;;;;;5005952;28;20412;-71
2023/01/24 06:15:01;;;;;;;17.83;6.17;;;2.60;99.90;;;;;;4992086;28;20519;-70
2023/01/24 06:17:27;;;;;;;7.47;4.77;;;2.60;99.90;;;;;;5003635;28;20469;-71
2023/01/24 06:19:53;;;;;;;13.10;5.60;;;2.60;99.90;;;;;;5008121;28;20218;-71
2023/01/24 06:22:28;;;;;;;12.23;6.27;;;2.60;99.90;;;;;;4996374;28;20226;-70
2023/01/24 06:24:54;;;;;;;10.20;5.03;;;2.60;99.90;;;;;;5010100;28;20479;-71
2023/01/24 06:27:28;;;;;;;9.70;5.63;;;2.60;99.90;;;;;;5006892;28;20464;-71
2023/01/24 06:29:54;;;;;;;10.83;6.50;;;2.60;99.90;;;;;;4998370;28;20562;-70
2023/01/24 06:32:27;;;;;;;12.63;6.33;;;2.60;99.90;;;;;;4992649;28;20706;-71
2023/01/24 06:35:16;;;;;;;9.90;5.60;;;2.60;99.90;;;;;;4991933;28;20461;-71
2023/01/24 06:37:52;;;;;;;12.60;5.90;;;2.60;99.90;;;;;;4998913;28;20552;-71
2023/01/24 06:40:20;;;;;;;9.83;5.70;;;2.60;99.90;;;;;;4995124;28;20467;-71
2023/01/24 06:42:46;;;;;;;14.47;7.13;;;2.60;99.90;;;;;;5012014;28;20465;-71
2023/01/24 06:45:12;;;;;;;12.10;6.43;;;2.60;99.90;;;;;;5009898;28;20863;-71
2023/01/24 06:47:39;;;;;;;11.87;5.87;;;2.60;99.90;;;;;;5010126;28;20460;-72
2023/01/24 06:50:07;;;;;;;11.93;5.73;;;2.60;99.90;;;;;;5010538;28;20265;-71
2023/01/24 06:52:34;;;;;;;10.70;5.73;;;2.60;99.90;;;;;;5006219;28;20484;-71
2023/01/24 06:54:59;;;;;;;11.03;5.40;;;2.60;99.90;;;;;;5006665;28;20458;-71
2023/01/24 06:57:25;;;;;;;8.87;4.90;;;2.60;99.90;;;;;;4990160;28;20454;-71
2023/01/24 06:59:51;;;;;;;11.20;6.87;;;2.60;99.90;;;;;;5009223;28;20345;-71
2023/01/24 07:02:16;;;;;;;11.10;5.33;;;2.60;99.90;;;;;;5011015;28;20225;-70
2023/01/24 07:04:42;;;;;;;11.07;6.20;;;2.60;99.90;;;;;;5010128;28;20324;-72
2023/01/24 07:07:08;;;;;;;11.93;6.10;;;2.60;99.90;;;;;;5010455;28;20708;-71
2023/01/24 07:09:34;;;;;;;9.53;6.17;;;2.60;99.90;;;;;;5002274;28;20322;-72
2023/01/24 07:11:59;;;;;;;8.50;4.93;;;2.60;99.90;;;;;;4993073;28;20233;-71
2023/01/24 07:14:25;;;;;;;12.47;6.10;;;2.60;99.90;;;;;;5009922;28;20214;-71
2023/01/24 07:16:52;;;;;;;9.17;5.40;;;2.60;99.90;;;;;;5009900;28;20225;-71
2023/01/24 07:19:22;;;;;;;13.80;5.80;;;2.60;99.90;;;;;;4990669;28;20451;-71
2023/01/24 07:21:48;;;;;;;7.87;4.30;;;2.60;99.90;;;;;;5009703;28;20457;-71
2023/01/24 07:24:18;;;;;;;12.43;7.13;;;2.60;99.90;;;;;;4993621;28;20453;-72
2023/01/24 07:26:44;;;;;;;11.03;5.23;;;2.60;99.90;;;;;;4992623;28;20475;-71
2023/01/24 07:29:10;;;;;;;13.17;5.40;;;2.60;99.90;;;;;;4990224;28;20820;-71
2023/01/24 07:31:37;;;;;;;9.30;5.13;;;2.60;99.90;;;;;;4990067;28;20469;-71
2023/01/24 07:34:02;;;;;;;12.90;5.63;;;2.60;99.90;;;;;;5006203;28;20475;-71
2023/01/24 07:36:28;;;;;;;13.07;5.40;;;2.60;99.90;;;;;;4980730;28;20523;-71
2023/01/24 07:38:55;;;;;;;11.30;6.00;;;2.60;99.90;;;;;;5001891;28;20224;-70
2023/01/24 07:41:21;;;;;;;9.87;5.13;;;2.60;99.90;;;;;;5006957;28;20213;-71
2023/01/24 07:43:52;;;;;;;12.30;6.90;;;2.60;99.90;;;;;;5001784;28;20527;-71
2023/01/24 07:46:19;;;;;;;9.10;6.30;;;2.60;99.90;;;;;;5010119;28;20512;-71
2023/01/24 07:48:44;;;;;;;17.47;7.13;;;2.60;99.90;;;;;;5008047;28;20255;-71
2023/01/24 07:51:10;;;;;;;13.93;7.30;;;2.60;99.90;;;;;;5010378;28;20477;-71
2023/01/24 07:53:36;;;;;;;8.80;4.60;;;2.60;99.90;;;;;;5009877;28;20300;-71
2023/01/24 07:56:03;;;;;;;11.37;5.43;;;2.60;99.90;;;;;;5009734;28;20218;-71
2023/01/24 07:58:30;;;;;;;14.77;6.50;;;2.60;99.90;;;;;;5008345;28;20221;-71
2023/01/24 08:00:55;;;;;;;12.20;5.80;;;2.60;99.90;;;;;;5010139;28;20456;-71
2023/01/24 08:03:21;;;;;;;16.60;7.70;;;2.60;99.90;;;;;;5008476;28;20465;-71
2023/01/24 08:05:47;;;;;;;13.20;6.53;;;2.60;99.90;;;;;;5005169;28;20288;-71
2023/01/24 08:08:12;;;;;;;11.10;6.23;;;2.60;99.90;;;;;;5009094;28;20604;-71
2023/01/24 08:10:38;;;;;;;12.60;6.50;;;2.60;99.90;;;;;;4988495;28;20215;-69
2023/01/24 08:13:04;;;;;;;11.30;5.60;;;2.60;99.90;;;;;;5006041;28;20291;-70
2023/01/24 08:15:30;;;;;;;11.33;6.27;;;2.60;99.90;;;;;;4994019;28;20220;-71
2023/01/24 08:17:55;;;;;;;13.20;6.20;;;2.60;99.90;;;;;;4990163;28;20232;-70
2023/01/24 08:20:21;;;;;;;10.53;5.47;;;2.70;99.90;;;;;;5010238;28;20216;-71
2023/01/24 08:22:47;;;;;;;10.77;5.03;;;2.60;99.90;;;;;;5004627;28;20222;-71
2023/01/24 08:25:12;;;;;;;8.93;5.07;;;2.70;99.90;;;;;;4992261;28;20229;-71
2023/01/24 08:27:41;;;;;;;9.07;5.00;;;2.60;99.90;;;;;;5008533;28;20239;-70
2023/01/24 08:30:10;;;;;;;8.93;4.83;;;2.70;99.90;;;;;;5008513;28;20226;-72
2023/01/24 08:32:36;;;;;;;10.07;5.00;;;2.70;99.90;;;;;;5007166;28;20465;-71
2023/01/24 08:35:02;;;;;;;11.60;5.70;;;2.70;99.90;;;;;;4991449;28;20456;-72
2023/01/24 08:37:28;;;;;;;8.27;5.30;;;2.70;99.90;;;;;;5008324;28;20980;-71
2023/01/24 08:39:56;;;;;;;12.30;4.70;;;2.70;99.90;;;;;;5008239;28;20486;-71
2023/01/24 08:42:23;;;;;;;17.10;6.70;;;2.70;99.90;;;;;;5007904;28;20325;-71
2023/01/24 08:44:49;;;;;;;10.33;5.53;;;2.70;99.90;;;;;;5007523;28;20444;-71
2023/01/24 08:47:14;;;;;;;10.47;6.30;;;2.70;99.90;;;;;;4989482;28;20463;-71
2023/01/24 08:49:40;;;;;;;10.83;5.83;;;2.70;99.90;;;;;;4987998;28;20620;-70
2023/01/24 08:52:06;;;;;;;11.50;5.73;;;2.70;99.90;;;;;;4985756;28;20725;-71
2023/01/24 08:54:32;;;;;;;15.60;7.70;;;2.70;99.90;;;;;;4981938;28;20214;-72
2023/01/24 08:56:58;;;;;;;13.27;6.40;;;2.70;99.90;;;;;;4984797;28;20452;-71
2023/01/24 08:59:24;;;;;;;13.10;6.17;;;2.70;99.90;;;;;;5006942;28;20459;-72
2023/01/24 09:01:50;;;;;;;11.13;6.30;;;2.70;99.90;;;;;;4989447;28;20538;-72
2023/01/24 09:04:15;;;;;;;17.60;7.17;;;2.70;99.90;;;;;;5007857;28;20260;-72
2023/01/24 09:06:41;;;;;;;13.13;5.27;;;2.80;99.90;;;;;;4997820;28;20239;-71
2023/01/24 09:09:07;;;;;;;9.03;4.93;;;2.70;99.90;;;;;;5007224;28;20217;-71
2023/01/24 09:11:32;;;;;;;9.03;6.13;;;2.80;99.90;;;;;;5008208;28;20690;-72
2023/01/24 09:13:58;;;;;;;10.80;5.10;;;2.80;99.90;;;;;;5009008;28;20764;-72
2023/01/24 09:16:24;;;;;;;10.27;6.33;;;2.80;99.90;;;;;;5005529;28;20341;-72
2023/01/24 09:18:51;;;;;;;17.30;7.17;;;2.80;99.90;;;;;;5005743;28;20277;-71
2023/01/24 09:21:17;;;;;;;12.80;5.43;;;2.80;99.90;;;;;;5007501;28;20221;-71
2023/01/24 09:23:43;;;;;;;9.83;5.03;;;2.80;99.90;;;;;;5007054;28;20453;-71
2023/01/24 09:26:09;;;;;;;12.17;6.67;;;2.80;99.90;;;;;;5006516;28;20452;-71
2023/01/24 09:28:35;;;;;;;10.40;5.40;;;2.80;99.90;;;;;;5006974;28;20225;-71
2023/01/24 09:31:01;;;;;;;10.60;5.73;;;2.80;99.90;;;;;;4995949;28;20677;-71
2023/01/24 09:33:27;;;;;;;11.90;6.10;;;2.80;99.90;;;;;;5017770;28;20241;-71
2023/01/24 09:36:01;;;;;;;10.27;5.30;;;2.80;99.90;;;;;;4989195;28;20450;-71
2023/01/24 09:38:29;;;;;;;8.43;5.43;;;2.80;99.90;;;;;;4995672;28;20622;-72
2023/01/24 09:41:27;;;;;;;6.67;5.07;;;2.80;99.90;;;;;;5013196;28;20452;-71
2023/01/24 09:43:58;;;;;;;9.90;5.20;;;2.80;99.90;;;;;;5006528;28;20510;-71
2023/01/24 09:46:44;;;;;;;12.40;6.53;;;2.80;99.90;;;;;;4990052;28;20981;-72
2023/01/24 09:49:40;;;;;;;8.90;4.80;;;2.80;99.90;;;;;;5002123;28;20533;-72
2023/01/24 09:52:12;;;;;;;9.90;5.37;;;2.80;99.90;;;;;;5002592;28;20870;-71
2023/01/24 09:54:48;;;;;;;10.27;5.17;;;2.80;99.90;;;;;;4995782;28;20464;-71
2023/01/24 09:57:24;;;;;;;10.00;5.63;;;2.80;99.90;;;;;;5009543;28;20456;-71
2023/01/24 09:59:55;;;;;;;21.20;9.33;;;2.80;99.90;;;;;;5005239;28;20473;-71
2023/01/24 10:02:21;;;;;;;13.83;6.67;;;2.80;99.90;;;;;;5009981;28;20476;-72
2023/01/24 10:04:49;;;;;;;12.30;6.03;;;2.80;99.90;;;;;;5010598;28;20460;-72
2023/01/24 10:07:42;;;;;;;9.70;5.70;;;2.80;99.90;;;;;;5011645;28;20522;-71
2023/01/24 10:10:23;;;;;;;12.07;5.80;;;2.80;99.90;;;;;;5015804;28;20457;-71
2023/01/24 10:13:09;;;;;;;13.33;6.87;;;2.80;99.90;;;;;;5012090;28;20463;-71
2023/01/24 10:15:53;;;;;;;14.33;6.17;;;2.80;99.90;;;;;;5006092;28;20514;-71
2023/01/24 10:18:37;;;;;;;15.80;7.40;;;2.90;99.90;;;;;;5009354;28;20545;-72
2023/01/24 10:21:05;;;;;;;13.77;6.60;;;2.90;99.90;;;;;;5010197;28;20452;-71
2023/01/24 10:23:33;;;;;;;15.07;6.33;;;2.90;99.90;;;;;;4998164;28;20481;-71
2023/01/24 10:26:21;;;;;;;8.87;5.30;;;2.80;99.90;;;;;;5002274;28;21029;-71
2023/01/24 10:28:50;;;;;;;8.17;5.07;;;2.90;99.90;;;;;;5010815;28;20446;-71
2023/01/24 10:31:37;;;;;;;11.53;6.00;;;2.90;99.90;;;;;;5011332;28;20536;-72
2023/01/24 10:34:24;;;;;;;8.27;5.07;;;2.90;99.90;;;;;;4993680;28;20462;-71
2023/01/24 10:37:17;;;;;;;8.53;5.37;;;2.90;99.90;;;;;;5011774;28;20460;-72
2023/01/24 10:39:43;;;;;;;11.00;5.80;;;2.90;99.90;;;;;;5009628;28;20467;-71
2023/01/24 10:42:30;;;;;;;12.97;5.93;;;2.90;99.90;;;;;;5009569;28;20453;-71
2023/01/24 10:45:18;;;;;;;11.80;5.43;;;2.90;99.90;;;;;;4993704;28;20214;-72
2023/01/24 10:48:40;;;;;;;8.97;5.27;;;2.90;99.90;;;;;;5011197;28;20458;-71
2023/01/24 10:51:20;;;;;;;9.20;4.77;;;2.90;99.90;;;;;;4955390;28;20551;-71
2023/01/24 10:53:46;;;;;;;11.67;5.40;;;2.90;99.90;;;;;;5009733;28;20488;-71
2023/01/24 10:56:14;;;;;;;13.37;5.97;;;2.90;99.90;;;;;;5010255;28;20451;-71
2023/01/24 10:58:43;;;;;;;17.33;6.80;;;2.90;99.90;;;;;;5010520;28;20445;-71
2023/01/24 11:01:20;;;;;;;10.23;5.70;;;2.90;99.90;;;;;;5009352;28;20480;-72
2023/01/24 11:03:51;;;;;;;11.13;6.97;;;2.90;99.90;;;;;;5008466;28;20436;-72
2023/01/24 11:06:37;;;;;;;12.00;6.00;;;2.90;99.90;;;;;;5010075;28;20449;-72
2023/01/24 11:09:09;;;;;;;9.33;6.50;;;2.80;99.90;;;;;;5009753;28;20441;-72
2023/01/24 11:11:48;;;;;;;26.13;15.37;;;2.80;99.90;;;;;;5019556;28;20556;-71
2023/01/24 11:14:17;;;;;;;36.60;25.40;;;2.90;99.90;;;;;;4990571;28;20473;-71
2023/01/24 11:16:49;;;;;;;25.30;17.00;;;2.90;99.90;;;;;;4974820;28;20469;-72
2023/01/24 11:19:32;;;;;;;14.17;10.13;;;2.90;99.90;;;;;;4987965;28;20449;-72
2023/01/24 11:22:18;;;;;;;10.03;6.43;;;2.80;99.90;;;;;;5009061;28;20464;-72
2023/01/24 11:24:45;;;;;;;9.80;6.00;;;2.90;99.90;;;;;;5009614;28;20460;-72
2023/01/24 11:27:20;;;;;;;12.10;6.80;;;2.90;99.90;;;;;;4992811;28;20472;-71
2023/01/24 11:30:12;;;;;;;8.73;6.43;;;2.90;99.90;;;;;;5009529;28;20444;-71
2023/01/24 11:32:43;;;;;;;14.63;6.50;;;2.90;99.90;;;;;;5004784;28;20548;-72
2023/01/24 11:35:20;;;;;;;13.37;6.60;;;3.00;99.90;;;;;;5008545;28;20666;-72
2023/01/24 11:38:02;;;;;;;11.83;5.80;;;3.00;99.90;;;;;;4993128;28;20451;-71
2023/01/24 11:40:28;;;;;;;11.97;6.23;;;2.90;99.90;;;;;;5004907;28;20494;-72
2023/01/24 11:42:59;;;;;;;10.93;5.67;;;2.90;99.90;;;;;;5008389;28;20469;-72
2023/01/24 11:45:55;;;;;;;10.77;5.83;;;2.90;99.90;;;;;;5009070;28;20280;-72
2023/01/24 11:48:27;;;;;;;9.60;5.43;;;2.90;99.90;;;;;;4976614;28;20468;-72
2023/01/24 11:51:22;;;;;;;11.80;6.37;;;2.90;99.90;;;;;;5002307;28;20466;-71
2023/01/24 11:54:09;;;;;;;11.57;6.40;;;3.00;99.90;;;;;;5006338;28;20457;-71
2023/01/24 11:56:38;;;;;;;13.47;6.40;;;2.90;99.90;;;;;;5003249;28;20544;-71
2023/01/24 11:59:23;;;;;;;6.77;4.87;;;2.90;99.90;;;;;;4990059;28;20485;-71
2023/01/24 12:02:03;;;;;;;9.17;5.60;;;3.00;99.90;;;;;;4990021;28;20961;-71
2023/01/24 12:04:49;;;;;;;10.40;6.03;;;2.90;99.90;;;;;;5006719;28;20441;-70
2023/01/24 12:07:55;;;;;;;10.53;6.20;;;3.00;99.90;;;;;;4991323;28;20454;-71
2023/01/24 12:10:55;;;;;;;9.63;5.60;;;3.00;99.90;;;;;;5001959;28;20446;-71
2023/01/24 12:13:30;;;;;;;8.23;5.00;;;3.00;99.90;;;;;;4999403;28;20607;-72
2023/01/24 12:16:21;;;;;;;10.77;5.70;;;3.00;99.90;;;;;;4994914;28;20468;-71
2023/01/24 12:19:06;;;;;;;10.33;5.57;;;2.90;99.90;;;;;;4972298;28;20759;-71
2023/01/24 12:21:32;;;;;;;9.23;5.20;;;3.00;99.90;;;;;;5006983;28;20511;-72
2023/01/24 12:24:02;;;;;;;8.50;4.43;;;2.90;99.90;;;;;;4988941;28;20457;-71
2023/01/24 12:26:34;;;;;;;9.30;4.90;;;3.00;99.90;;;;;;5001652;28;20226;-72
2023/01/24 12:29:05;;;;;;;9.63;4.67;;;3.00;99.90;;;;;;5005715;28;20485;-72
2023/01/24 12:31:41;;;;;;;7.77;5.10;;;3.00;99.90;;;;;;5017219;28;20459;-72
2023/01/24 12:34:30;;;;;;;10.03;5.63;;;3.00;99.90;;;;;;5001589;28;20516;-72
2023/01/24 12:37:04;;;;;;;9.47;5.97;;;3.00;99.90;;;;;;5002737;28;20448;-72
2023/01/24 12:39:41;;;;;;;8.63;5.97;;;3.00;99.90;;;;;;5002749;28;20465;-72
2023/01/24 12:42:38;;;;;;;11.93;6.80;;;3.00;99.90;;;;;;5006383;28;21003;-72
2023/01/24 12:45:20;;;;;;;10.93;8.10;;;3.00;99.90;;;;;;5004545;28;20441;-72
2023/01/24 12:48:15;;;;;;;15.00;7.40;;;2.90;99.90;;;;;;5006890;28;20445;-71
2023/01/24 12:50:46;;;;;;;13.70;7.07;;;2.90;99.90;;;;;;4993791;28;20606;-70
2023/01/24 12:53:31;;;;;;;21.43;9.70;;;3.00;99.90;;;;;;4985803;28;20522;-71
2023/01/24 12:56:12;;;;;;;16.80;8.10;;;3.00;99.90;;;;;;5002843;28;20495;-71
2023/01/24 12:58:41;;;;;;;12.30;7.87;;;3.00;99.90;;;;;;4987488;28;20456;-72
2023/01/24 13:01:16;;;;;;;13.80;7.23;;;3.00;99.90;;;;;;4986952;28;20536;-70
2023/01/24 13:04:11;;;;;;;14.10;6.03;;;3.00;99.90;;;;;;5003787;28;20538;-70
2023/01/24 13:06:48;;;;;;;11.93;6.70;;;2.90;99.90;;;;;;5007711;28;20462;-71
2023/01/24 13:09:22;;;;;;;9.07;6.13;;;2.90;99.90;;;;;;5009436;28;20548;-71
2023/01/24 13:11:50;;;;;;;13.30;7.67;;;3.00;99.90;;;;;;5006763;28;20461;-71
2023/01/24 13:14:26;;;;;;;15.80;8.67;;;2.90;99.90;;;;;;4991801;28;20894;-71
2023/01/24 13:17:09;;;;;;;10.00;6.30;;;2.90;99.90;;;;;;5009784;28;20453;-71
2023/01/24 13:20:03;;;;;;;15.00;6.97;;;3.00;99.90;;;;;;5006890;28;20496;-71
2023/01/24 13:23:13;;;;;;;10.97;5.47;;;3.00;99.90;;;;;;5002693;28;20536;-71
2023/01/24 13:25:50;;;;;;;8.67;5.67;;;2.90;99.90;;;;;;4992115;28;20498;-71
2023/01/24 13:28:18;;;;;;;8.63;5.17;;;3.00;99.90;;;;;;5006712;28;20455;-70
2023/01/24 13:31:01;;;;;;;8.70;5.27;;;3.00;99.90;;;;;;5006918;28;20449;-71
2023/01/24 13:33:39;;;;;;;13.57;7.17;;;2.90;99.90;;;;;;5001720;28;20473;-71
2023/01/24 13:36:06;;;;;;;13.33;6.27;;;2.90;99.90;;;;;;5025702;28;20480;-71
2023/01/24 13:38:42;;;;;;;9.70;5.57;;;3.00;99.90;;;;;;5013056;28;21003;-71
2023/01/24 13:41:17;;;;;;;13.23;7.17;;;3.00;99.90;;;;;;5025631;28;20460;-70
2023/01/24 13:43:58;;;;;;;9.90;5.37;;;3.00;99.90;;;;;;5011762;28;20462;-71
2023/01/24 13:46:47;;;;;;;12.43;6.80;;;3.00;99.90;;;;;;5011353;28;20484;-71